createdAt,value
2017-10-22T00:00:04.935Z,0.70
2017-10-22T00:01:04.935Z,0.90
2017-10-22T00:02:04.933Z,0.90
2017-10-22T00:03:05.006Z,1.30
2017-10-22T00:04:04.951Z,2.50
2017-10-22T00:05:04.944Z,1.10
2017-10-22T00:06:05.007Z,1.30
2017-10-22T00:07:05.008Z,1.10
2017-10-22T00:08:04.938Z,0.40
2017-10-22T00:09:04.942Z,0.40
2017-10-22T00:10:04.938Z,0.20
2017-10-22T00:11:04.964Z,0.50
2017-10-22T00:12:04.877Z,1.20
2017-10-22T00:13:04.909Z,0.60
2017-10-22T00:14:04.903Z,0.20
2017-10-22T00:15:04.908Z,0.20
2017-10-22T00:16:05.012Z,0.50
2017-10-22T00:17:04.910Z,0.00
2017-10-22T00:18:04.903Z,0.00
2017-10-22T00:19:04.882Z,0.00
2017-10-22T00:20:05.018Z,0.30
2017-10-22T00:21:05.044Z,0.30
2017-10-22T00:22:04.955Z,1.50
2017-10-22T00:23:05.018Z,1.70
2017-10-22T00:24:04.949Z,1.70
2017-10-22T00:25:04.953Z,0.20
2017-10-22T00:26:05.028Z,0.10
2017-10-22T00:27:04.950Z,0.00
2017-10-22T00:28:05.022Z,0.20
2017-10-22T00:29:05.022Z,0.50
2017-10-22T00:30:04.953Z,0.20
2017-10-22T00:31:05.025Z,0.00
2017-10-22T00:32:05.024Z,0.00
2017-10-22T00:33:04.951Z,0.10
2017-10-22T00:34:05.025Z,0.00
2017-10-22T00:35:05.026Z,0.00
2017-10-22T00:36:04.957Z,0.20
2017-10-22T00:37:04.954Z,0.10
2017-10-22T00:38:05.027Z,0.00
2017-10-22T00:39:04.957Z,0.10
2017-10-22T00:40:04.963Z,0.00
2017-10-22T00:41:05.036Z,0.00
2017-10-22T00:42:04.959Z,0.00
2017-10-22T00:43:05.030Z,0.00
2017-10-22T00:44:04.965Z,0.10
2017-10-22T00:45:05.032Z,0.30
2017-10-22T00:46:05.038Z,0.00
2017-10-22T00:47:04.965Z,0.10
2017-10-22T00:48:05.036Z,0.00
2017-10-22T00:49:05.015Z,0.10
2017-10-22T00:50:05.016Z,0.00
2017-10-22T00:51:05.020Z,0.40
2017-10-22T00:52:04.893Z,0.10
2017-10-22T00:53:05.036Z,0.30
2017-10-22T00:54:04.927Z,0.20
2017-10-22T00:55:04.988Z,0.30
2017-10-22T00:56:05.000Z,0.40
2017-10-22T00:57:04.937Z,1.10
2017-10-22T00:58:05.025Z,0.20
2017-10-22T00:59:05.001Z,0.40
2017-10-22T01:00:05.010Z,0.50
2017-10-22T01:01:04.945Z,0.10
2017-10-22T01:02:04.942Z,0.20
2017-10-22T01:03:04.993Z,0.30
2017-10-22T01:04:04.945Z,0.60
2017-10-22T01:05:04.980Z,0.50
2017-10-22T01:06:04.996Z,0.50
2017-10-22T01:07:04.928Z,0.20
2017-10-22T01:08:05.030Z,0.40
2017-10-22T01:09:04.977Z,0.30
2017-10-22T01:10:05.036Z,0.00
2017-10-22T01:11:04.940Z,0.10
2017-10-22T01:12:05.033Z,0.00
2017-10-22T01:13:05.009Z,0.00
2017-10-22T01:14:04.932Z,0.20
2017-10-22T01:15:04.913Z,0.30
2017-10-22T01:16:04.989Z,0.00
2017-10-22T01:17:04.945Z,0.10
2017-10-22T01:18:04.940Z,0.20
2017-10-22T01:19:05.015Z,0.10
2017-10-22T01:20:04.869Z,0.00
2017-10-22T01:21:04.956Z,0.00
2017-10-22T01:22:04.950Z,0.10
2017-10-22T01:23:04.872Z,0.30
2017-10-22T01:24:04.989Z,0.30
2017-10-22T01:25:04.962Z,0.30
2017-10-22T01:26:04.881Z,0.50
2017-10-22T01:27:04.872Z,0.30
2017-10-22T01:28:04.943Z,0.00
2017-10-22T01:29:04.887Z,0.00
2017-10-22T01:30:04.945Z,0.00
2017-10-22T01:31:04.989Z,0.20
2017-10-22T01:32:05.048Z,0.00
2017-10-22T01:33:04.947Z,0.20
2017-10-22T01:34:04.965Z,0.00
2017-10-22T01:35:05.050Z,0.00
2017-10-22T01:36:04.969Z,0.00
2017-10-22T01:37:04.996Z,0.40
2017-10-22T01:38:04.963Z,0.10
2017-10-22T01:39:04.964Z,0.00
2017-10-22T01:40:04.912Z,0.40
2017-10-22T01:41:04.960Z,0.80
2017-10-22T01:42:04.961Z,0.20
2017-10-22T01:43:04.917Z,0.00
2017-10-22T01:44:05.080Z,0.00
2017-10-22T01:45:04.969Z,0.00
2017-10-22T01:46:05.017Z,0.00
2017-10-22T01:47:04.919Z,0.00
2017-10-22T01:48:05.020Z,0.00
2017-10-22T01:49:05.016Z,0.00
2017-10-22T01:50:05.005Z,0.10
2017-10-22T01:51:05.159Z,0.10
2017-10-22T01:52:05.074Z,0.00
2017-10-22T01:53:05.011Z,0.00
2017-10-22T01:54:05.075Z,0.00
2017-10-22T01:55:05.006Z,0.60
2017-10-22T01:56:05.075Z,0.20
2017-10-22T01:57:05.006Z,0.00
2017-10-22T01:58:05.005Z,0.10
2017-10-22T01:59:05.010Z,0.00
2017-10-22T02:00:04.955Z,0.00
2017-10-22T02:01:05.078Z,0.00
2017-10-22T02:02:05.020Z,0.00
2017-10-22T02:03:05.079Z,0.10
2017-10-22T02:04:05.082Z,0.00
2017-10-22T02:05:05.007Z,0.10
2017-10-22T02:06:05.012Z,0.00
2017-10-22T02:07:05.082Z,0.30
2017-10-22T02:08:05.013Z,0.00
2017-10-22T02:09:05.083Z,0.00
2017-10-22T02:10:04.984Z,0.00
2017-10-22T02:11:04.977Z,0.00
2017-10-22T02:12:05.032Z,0.00
2017-10-22T02:13:05.112Z,0.20
2017-10-22T02:14:04.951Z,0.20
2017-10-22T02:15:04.980Z,0.40
2017-10-22T02:16:05.017Z,0.10
2017-10-22T02:17:04.991Z,0.30
2017-10-22T02:18:04.982Z,0.20
2017-10-22T02:19:04.958Z,0.10
2017-10-22T02:20:04.981Z,0.10
2017-10-22T02:21:05.035Z,0.30
2017-10-22T02:22:05.015Z,0.20
2017-10-22T02:23:05.017Z,0.00
2017-10-22T02:24:04.966Z,0.00
2017-10-22T02:25:05.022Z,0.00
2017-10-22T02:26:05.023Z,0.00
2017-10-22T02:27:04.981Z,0.00
2017-10-22T02:28:05.074Z,0.00
2017-10-22T02:29:04.985Z,0.30
2017-10-22T02:30:05.089Z,0.00
2017-10-22T02:31:05.094Z,0.00
2017-10-22T02:32:05.005Z,0.00
2017-10-22T02:33:05.035Z,0.00
2017-10-22T02:34:05.022Z,0.00
2017-10-22T02:35:05.001Z,0.00
2017-10-22T02:36:04.982Z,0.00
2017-10-22T02:37:05.086Z,0.00
2017-10-22T02:38:05.092Z,2.00
2017-10-22T02:39:05.037Z,1.60
2017-10-22T02:40:05.091Z,0.70
2017-10-22T02:41:04.964Z,0.30
2017-10-22T02:42:05.053Z,0.50
2017-10-22T02:43:05.032Z,0.40
2017-10-22T02:44:05.003Z,0.70
2017-10-22T02:45:05.092Z,0.40
2017-10-22T02:46:05.016Z,0.00
2017-10-22T02:47:05.076Z,0.00
2017-10-22T02:48:04.991Z,0.00
2017-10-22T02:49:05.075Z,0.50
2017-10-22T02:50:05.022Z,0.40
2017-10-22T02:51:05.053Z,0.50
2017-10-22T02:52:04.958Z,0.40
2017-10-22T02:53:05.053Z,0.40
2017-10-22T02:54:04.959Z,1.50
2017-10-22T02:55:05.046Z,1.50
2017-10-22T02:56:04.966Z,1.40
2017-10-22T02:57:04.972Z,0.90
2017-10-22T02:58:04.962Z,0.30
2017-10-22T02:59:04.962Z,0.80
2017-10-22T03:00:04.980Z,0.00
2017-10-22T03:01:05.133Z,0.00
2017-10-22T03:02:05.048Z,1.10
2017-10-22T03:03:05.082Z,0.80
2017-10-22T03:04:05.101Z,1.40
2017-10-22T03:05:05.000Z,0.40
2017-10-22T03:06:05.054Z,0.80
2017-10-22T03:07:05.084Z,0.40
2017-10-22T03:08:05.018Z,1.00
2017-10-22T03:09:05.103Z,1.20
2017-10-22T03:10:05.055Z,2.60
2017-10-22T03:11:05.050Z,0.80
2017-10-22T03:12:05.055Z,1.10
2017-10-22T03:13:05.124Z,1.50
2017-10-22T03:14:05.124Z,2.50
2017-10-22T03:15:05.050Z,2.90
2017-10-22T03:16:05.123Z,2.20
2017-10-22T03:17:05.125Z,2.40
2017-10-22T03:18:05.055Z,1.30
2017-10-22T03:19:05.124Z,3.00
2017-10-22T03:20:05.056Z,1.20
2017-10-22T03:21:05.055Z,3.20
2017-10-22T03:22:05.051Z,2.80
2017-10-22T03:23:05.127Z,3.50
2017-10-22T03:24:05.057Z,2.80
2017-10-22T03:25:05.128Z,1.80
2017-10-22T03:26:05.054Z,1.90
2017-10-22T03:27:05.130Z,1.70
2017-10-22T03:28:05.059Z,2.90
2017-10-22T03:29:05.132Z,3.00
2017-10-22T03:30:05.093Z,2.20
2017-10-22T03:31:05.134Z,2.00
2017-10-22T03:32:05.066Z,2.00
2017-10-22T03:33:05.134Z,1.50
2017-10-22T03:34:05.062Z,1.80
2017-10-22T03:35:05.133Z,4.10
2017-10-22T03:36:05.144Z,2.60
2017-10-22T03:37:05.136Z,2.20
2017-10-22T03:38:05.136Z,2.50
2017-10-22T03:39:05.159Z,3.20
2017-10-22T03:40:05.138Z,3.50
2017-10-22T03:41:05.159Z,2.50
2017-10-22T03:42:05.139Z,2.70
2017-10-22T03:43:05.069Z,2.30
2017-10-22T03:44:05.139Z,2.10
2017-10-22T03:45:05.072Z,2.60
2017-10-22T03:46:05.142Z,2.10
2017-10-22T03:47:05.143Z,3.00
2017-10-22T03:48:05.144Z,3.10
2017-10-22T03:49:05.074Z,2.30
2017-10-22T03:50:05.144Z,2.20
2017-10-22T03:51:05.103Z,2.10
2017-10-22T03:52:05.143Z,1.90
2017-10-22T03:53:05.146Z,5.30
2017-10-22T03:54:05.076Z,1.30
2017-10-22T03:55:05.147Z,1.10
2017-10-22T03:56:05.083Z,1.80
2017-10-22T03:57:05.077Z,2.30
2017-10-22T03:58:05.149Z,4.00
2017-10-22T03:59:05.155Z,2.50
2017-10-22T04:00:05.078Z,2.20
2017-10-22T04:01:05.185Z,3.00
2017-10-22T04:02:05.151Z,4.10
2017-10-22T04:03:05.151Z,2.40
2017-10-22T04:04:05.080Z,2.00
2017-10-22T04:05:05.162Z,2.10
2017-10-22T04:06:05.088Z,1.80
2017-10-22T04:07:05.159Z,3.80
2017-10-22T04:08:05.088Z,2.00
2017-10-22T04:09:05.154Z,2.00
2017-10-22T04:10:05.055Z,3.80
2017-10-22T04:11:05.087Z,3.40
2017-10-22T04:12:05.213Z,2.30
2017-10-22T04:13:05.158Z,2.50
2017-10-22T04:14:05.098Z,2.90
2017-10-22T04:15:05.162Z,4.50
2017-10-22T04:16:05.090Z,2.90
2017-10-22T04:17:05.157Z,3.10
2017-10-22T04:18:05.093Z,2.30
2017-10-22T04:19:05.092Z,1.60
2017-10-22T04:20:05.162Z,1.40
2017-10-22T04:21:05.046Z,2.70
2017-10-22T04:22:05.163Z,2.30
2017-10-22T04:23:05.095Z,1.90
2017-10-22T04:24:05.105Z,1.30
2017-10-22T04:25:05.097Z,1.80
2017-10-22T04:26:05.167Z,2.40
2017-10-22T04:27:05.099Z,3.00
2017-10-22T04:28:05.097Z,2.80
2017-10-22T04:29:05.102Z,2.00
2017-10-22T04:30:05.169Z,2.60
2017-10-22T04:31:05.101Z,3.40
2017-10-22T04:32:05.171Z,2.70
2017-10-22T04:33:05.104Z,1.50
2017-10-22T04:34:05.124Z,1.60
2017-10-22T04:35:05.172Z,1.40
2017-10-22T04:36:05.186Z,6.90
2017-10-22T04:37:05.106Z,2.90
2017-10-22T04:38:05.171Z,2.70
2017-10-22T04:39:05.103Z,1.40
2017-10-22T04:40:05.173Z,1.10
2017-10-22T04:41:05.104Z,2.60
2017-10-22T04:42:05.108Z,1.60
2017-10-22T04:43:05.177Z,2.40
2017-10-22T04:44:05.110Z,2.60
2017-10-22T04:45:05.062Z,1.80
2017-10-22T04:46:05.127Z,2.20
2017-10-22T04:47:05.195Z,3.00
2017-10-22T04:48:05.109Z,2.60
2017-10-22T04:49:05.179Z,2.40
2017-10-22T04:50:05.067Z,1.50
2017-10-22T04:51:05.062Z,1.30
2017-10-22T04:52:05.153Z,2.40
2017-10-22T04:53:05.084Z,1.40
2017-10-22T04:54:05.168Z,2.20
2017-10-22T04:55:05.172Z,1.50
2017-10-22T04:56:05.194Z,1.50
2017-10-22T04:57:05.171Z,2.00
2017-10-22T04:58:05.087Z,1.70
2017-10-22T04:59:05.137Z,1.40
2017-10-22T05:00:05.195Z,1.50
2017-10-22T05:01:05.148Z,1.50
2017-10-22T05:02:05.186Z,1.50
2017-10-22T05:03:05.191Z,2.20
2017-10-22T05:04:05.119Z,1.60
2017-10-22T05:05:05.192Z,1.20
2017-10-22T05:06:05.134Z,1.20
2017-10-22T05:07:05.191Z,2.70
2017-10-22T05:08:05.195Z,1.70
2017-10-22T05:09:05.192Z,1.50
2017-10-22T05:10:05.167Z,1.20
2017-10-22T05:11:05.060Z,1.80
2017-10-22T05:13:05.211Z,2.40
2017-10-22T05:14:05.186Z,1.50
2017-10-22T05:15:05.058Z,2.00
2017-10-22T05:16:05.065Z,1.30
2017-10-22T05:17:05.061Z,2.00
2017-10-22T05:18:05.070Z,1.50
2017-10-22T05:19:05.162Z,3.00
2017-10-22T05:20:05.125Z,2.10
2017-10-22T05:21:05.198Z,2.40
2017-10-22T05:22:05.141Z,2.40
2017-10-22T05:23:05.199Z,1.10
2017-10-22T05:24:05.129Z,2.80
2017-10-22T05:25:05.200Z,1.60
2017-10-22T05:26:05.130Z,2.20
2017-10-22T05:27:05.210Z,1.50
2017-10-22T05:28:05.202Z,1.70
2017-10-22T05:29:05.129Z,2.20
2017-10-22T05:30:05.191Z,3.40
2017-10-22T05:31:05.132Z,2.60
2017-10-22T05:32:05.102Z,2.80
2017-10-22T05:33:05.138Z,2.30
2017-10-22T05:34:05.174Z,4.00
2017-10-22T05:35:05.109Z,3.10
2017-10-22T05:36:05.179Z,2.40
2017-10-22T05:37:05.200Z,3.20
2017-10-22T05:38:05.203Z,2.60
2017-10-22T05:39:05.141Z,1.90
2017-10-22T05:40:05.196Z,1.90
2017-10-22T05:41:05.174Z,2.40
2017-10-22T05:42:05.175Z,1.80
2017-10-22T05:43:05.199Z,2.40
2017-10-22T05:44:05.211Z,1.70
2017-10-22T05:45:05.179Z,2.40
2017-10-22T05:46:05.182Z,2.80
2017-10-22T05:47:05.162Z,1.20
2017-10-22T05:48:05.214Z,1.50
2017-10-22T05:49:05.115Z,2.40
2017-10-22T05:50:05.214Z,1.60
2017-10-22T05:51:05.118Z,1.20
2017-10-22T05:52:05.116Z,1.40
2017-10-22T05:53:05.185Z,1.30
2017-10-22T05:54:05.098Z,2.00
2017-10-22T05:55:05.085Z,1.30
2017-10-22T05:56:05.166Z,2.60
2017-10-22T05:57:05.103Z,3.10
2017-10-22T05:58:05.144Z,1.90
2017-10-22T05:59:05.166Z,4.20
2017-10-22T06:00:05.224Z,1.60
2017-10-22T06:01:05.153Z,2.30
2017-10-22T06:02:05.222Z,1.40
2017-10-22T06:03:05.175Z,1.40
2017-10-22T06:04:05.168Z,1.90
2017-10-22T06:05:05.227Z,1.40
2017-10-22T06:06:05.152Z,1.60
2017-10-22T06:07:05.229Z,2.00
2017-10-22T06:08:05.155Z,1.00
2017-10-22T06:09:05.150Z,1.60
2017-10-22T06:10:05.121Z,1.10
2017-10-22T06:11:05.129Z,1.00
2017-10-22T06:12:05.126Z,1.30
2017-10-22T06:13:05.127Z,2.90
2017-10-22T06:14:05.237Z,1.80
2017-10-22T06:15:05.077Z,1.70
2017-10-22T06:16:05.124Z,3.40
2017-10-22T06:17:05.254Z,2.00
2017-10-22T06:18:05.168Z,3.50
2017-10-22T06:19:05.125Z,2.40
2017-10-22T06:20:05.244Z,4.20
2017-10-22T06:21:05.160Z,1.90
2017-10-22T06:22:05.231Z,2.10
2017-10-22T06:23:05.164Z,1.60
2017-10-22T06:24:05.248Z,4.50
2017-10-22T06:25:05.164Z,3.10
2017-10-22T06:26:05.236Z,2.10
2017-10-22T06:27:05.208Z,2.40
2017-10-22T06:28:05.164Z,1.60
2017-10-22T06:29:05.243Z,1.10
2017-10-22T06:30:05.173Z,1.20
2017-10-22T06:31:05.198Z,1.90
2017-10-22T06:32:05.138Z,2.40
2017-10-22T06:33:05.239Z,4.30
2017-10-22T06:34:05.226Z,1.80
2017-10-22T06:35:05.245Z,1.30
2017-10-22T06:36:05.123Z,2.30
2017-10-22T06:37:05.241Z,1.80
2017-10-22T06:38:05.147Z,2.50
2017-10-22T06:39:05.128Z,2.10
2017-10-22T06:40:05.237Z,1.10
2017-10-22T06:41:05.250Z,1.80
2017-10-22T06:42:05.174Z,0.80
2017-10-22T06:43:05.246Z,1.40
2017-10-22T06:44:05.171Z,4.00
2017-10-22T06:45:05.245Z,2.50
2017-10-22T06:46:05.175Z,2.70
2017-10-22T06:47:05.250Z,1.90
2017-10-22T06:48:05.176Z,1.80
2017-10-22T06:49:05.146Z,2.90
2017-10-22T06:50:05.177Z,2.10
2017-10-22T06:51:05.253Z,2.50
2017-10-22T06:52:05.181Z,1.80
2017-10-22T06:53:05.256Z,2.90
2017-10-22T06:54:05.255Z,2.30
2017-10-22T06:55:05.183Z,3.30
2017-10-22T06:56:05.182Z,3.60
2017-10-22T06:57:05.258Z,2.30
2017-10-22T06:58:05.183Z,3.30
2017-10-22T06:59:05.261Z,2.10
2017-10-22T07:00:05.261Z,2.30
2017-10-22T07:01:05.161Z,1.80
2017-10-22T07:02:05.246Z,2.70
2017-10-22T07:03:05.186Z,2.50
2017-10-22T07:04:05.159Z,2.70
2017-10-22T07:05:05.262Z,2.10
2017-10-22T07:06:05.260Z,2.30
2017-10-22T07:07:05.140Z,1.90
2017-10-22T07:08:05.263Z,2.30
2017-10-22T07:09:05.247Z,1.90
2017-10-22T07:10:05.229Z,4.80
2017-10-22T07:11:05.266Z,2.70
2017-10-22T07:12:05.265Z,5.70
2017-10-22T07:13:05.194Z,2.30
2017-10-22T07:14:05.264Z,3.10
2017-10-22T07:15:05.195Z,2.10
2017-10-22T07:16:05.194Z,1.50
2017-10-22T07:17:05.269Z,2.00
2017-10-22T07:18:05.194Z,1.80
2017-10-22T07:19:05.277Z,2.70
2017-10-22T07:20:05.199Z,1.70
2017-10-22T07:21:05.269Z,2.60
2017-10-22T07:22:05.200Z,2.60
2017-10-22T07:23:05.277Z,1.90
2017-10-22T07:24:05.195Z,2.40
2017-10-22T07:25:05.198Z,5.00
2017-10-22T07:26:05.272Z,3.90
2017-10-22T07:27:05.202Z,1.90
2017-10-22T07:28:05.275Z,2.60
2017-10-22T07:29:05.209Z,2.60
2017-10-22T07:30:05.273Z,1.70
2017-10-22T07:31:05.201Z,1.20
2017-10-22T07:32:05.280Z,0.80
2017-10-22T07:33:05.213Z,0.90
2017-10-22T07:34:05.279Z,0.80
2017-10-22T07:35:05.204Z,2.50
2017-10-22T07:36:05.280Z,0.80
2017-10-22T07:37:05.212Z,1.20
2017-10-22T07:38:05.287Z,0.40
2017-10-22T07:39:05.280Z,1.40
2017-10-22T07:40:05.208Z,1.80
2017-10-22T07:41:05.289Z,2.50
2017-10-22T07:42:05.235Z,2.00
2017-10-22T07:43:05.288Z,1.80
2017-10-22T07:44:05.290Z,2.00
2017-10-22T07:45:05.215Z,3.60
2017-10-22T07:46:05.293Z,2.70
2017-10-22T07:47:05.213Z,2.70
2017-10-22T07:48:05.294Z,1.50
2017-10-22T07:49:05.214Z,1.80
2017-10-22T07:50:05.287Z,1.00
2017-10-22T07:51:05.289Z,1.70
2017-10-22T07:52:05.219Z,1.80
2017-10-22T07:53:05.220Z,3.20
2017-10-22T07:54:05.305Z,2.20
2017-10-22T07:55:05.203Z,2.40
2017-10-22T07:56:05.293Z,2.00
2017-10-22T07:57:05.249Z,1.50
2017-10-22T07:58:05.292Z,1.40
2017-10-22T07:59:05.220Z,2.00
2017-10-22T08:00:05.295Z,1.20
2017-10-22T08:01:05.261Z,1.90
2017-10-22T08:02:05.206Z,3.00
2017-10-22T08:03:05.237Z,3.00
2017-10-22T08:04:05.236Z,2.20
2017-10-22T08:05:05.294Z,2.00
2017-10-22T08:06:05.200Z,3.60
2017-10-22T08:07:05.206Z,1.60
2017-10-22T08:08:05.297Z,3.20
2017-10-22T08:09:05.294Z,1.60
2017-10-22T08:10:05.282Z,1.60
2017-10-22T08:11:05.306Z,1.20
2017-10-22T08:12:05.228Z,1.10
2017-10-22T08:13:05.227Z,1.10
2017-10-22T08:14:05.304Z,1.30
2017-10-22T08:15:05.230Z,0.80
2017-10-22T08:16:05.304Z,1.70
2017-10-22T08:17:05.230Z,2.30
2017-10-22T08:18:05.308Z,1.60
2017-10-22T08:19:05.231Z,2.70
2017-10-22T08:20:05.310Z,2.20
2017-10-22T08:21:05.233Z,3.20
2017-10-22T08:22:05.304Z,1.80
2017-10-22T08:23:05.238Z,2.00
2017-10-22T08:24:05.308Z,3.20
2017-10-22T08:25:05.238Z,2.10
2017-10-22T08:26:05.309Z,2.20
2017-10-22T08:27:05.243Z,3.20
2017-10-22T08:28:05.235Z,3.20
2017-10-22T08:29:05.307Z,2.40
2017-10-22T08:30:05.246Z,2.40
2017-10-22T08:31:05.210Z,1.70
2017-10-22T08:32:05.297Z,1.20
2017-10-22T08:33:05.217Z,1.50
2017-10-22T08:34:05.311Z,2.80
2017-10-22T08:35:05.246Z,2.40
2017-10-22T08:36:05.311Z,1.70
2017-10-22T08:37:05.300Z,1.80
2017-10-22T08:38:05.194Z,2.60
2017-10-22T08:39:05.238Z,1.80
2017-10-22T08:40:05.231Z,0.90
2017-10-22T08:41:05.200Z,1.20
2017-10-22T08:42:05.184Z,1.10
2017-10-22T08:43:05.188Z,2.20
2017-10-22T08:44:05.275Z,1.70
2017-10-22T08:45:05.276Z,1.50
2017-10-22T08:46:05.180Z,1.30
2017-10-22T08:47:05.206Z,1.50
2017-10-22T08:48:05.206Z,1.50
2017-10-22T08:49:05.208Z,1.30
2017-10-22T08:50:05.264Z,1.60
2017-10-22T08:51:05.254Z,1.80
2017-10-22T08:52:05.249Z,1.60
2017-10-22T08:53:05.252Z,2.50
2017-10-22T08:54:05.333Z,2.90
2017-10-22T08:55:05.342Z,2.20
2017-10-22T08:56:05.252Z,3.90
2017-10-22T08:57:05.255Z,1.70
2017-10-22T08:58:05.328Z,1.20
2017-10-22T08:59:05.254Z,3.40
2017-10-22T09:00:05.331Z,2.40
2017-10-22T09:01:05.268Z,3.80
2017-10-22T09:02:05.329Z,2.30
2017-10-22T09:03:05.257Z,2.30
2017-10-22T09:04:05.336Z,1.00
2017-10-22T09:05:05.262Z,1.00
2017-10-22T09:06:05.333Z,1.50
2017-10-22T09:07:05.336Z,2.60
2017-10-22T09:08:05.273Z,1.70
2017-10-22T09:09:05.334Z,2.00
2017-10-22T09:10:05.260Z,2.50
2017-10-22T09:11:05.338Z,1.20
2017-10-22T09:12:05.265Z,0.90
2017-10-22T09:13:05.336Z,1.70
2017-10-22T09:14:05.270Z,3.90
2017-10-22T09:15:05.338Z,2.70
2017-10-22T09:16:05.340Z,1.60
2017-10-22T09:17:05.270Z,2.00
2017-10-22T09:18:05.355Z,1.30
2017-10-22T09:19:05.271Z,1.10
2017-10-22T09:20:05.340Z,2.70
2017-10-22T09:21:05.277Z,3.30
2017-10-22T09:22:05.342Z,3.30
2017-10-22T09:23:05.273Z,2.40
2017-10-22T09:24:05.271Z,1.90
2017-10-22T09:25:05.344Z,1.00
2017-10-22T09:26:05.276Z,1.70
2017-10-22T09:27:05.362Z,2.80
2017-10-22T09:28:05.345Z,2.50
2017-10-22T09:29:05.278Z,2.70
2017-10-22T09:30:05.347Z,2.10
2017-10-22T09:31:05.230Z,1.60
2017-10-22T09:32:05.231Z,2.00
2017-10-22T09:33:05.310Z,1.80
2017-10-22T09:34:05.355Z,2.40
2017-10-22T09:35:05.228Z,1.80
2017-10-22T09:36:05.290Z,2.70
2017-10-22T09:37:05.247Z,3.80
2017-10-22T09:38:05.314Z,2.50
2017-10-22T09:39:05.295Z,1.80
2017-10-22T09:40:05.351Z,3.50
2017-10-22T09:41:05.379Z,2.10
2017-10-22T09:42:05.332Z,2.90
2017-10-22T09:43:05.316Z,2.80
2017-10-22T09:44:05.320Z,1.90
2017-10-22T09:45:05.301Z,3.80
2017-10-22T09:46:05.315Z,2.10
2017-10-22T09:47:05.319Z,1.80
2017-10-22T09:48:05.284Z,1.40
2017-10-22T09:49:05.216Z,1.80
2017-10-22T09:50:05.247Z,2.90
2017-10-22T09:51:05.208Z,1.80
2017-10-22T09:52:05.314Z,3.80
2017-10-22T09:53:05.252Z,3.40
2017-10-22T09:54:05.261Z,2.70
2017-10-22T09:55:05.258Z,1.70
2017-10-22T09:56:05.258Z,1.60
2017-10-22T09:57:05.208Z,1.50
2017-10-22T09:58:05.219Z,1.30
2017-10-22T09:59:05.263Z,1.70
2017-10-22T10:00:05.259Z,1.50
2017-10-22T10:01:05.132Z,1.30
2017-10-22T10:02:05.136Z,1.70
2017-10-22T10:03:05.133Z,0.70
2017-10-22T10:04:05.134Z,2.80
2017-10-22T10:05:05.136Z,1.80
2017-10-22T10:06:05.133Z,1.70
2017-10-22T10:07:05.135Z,1.50
2017-10-22T10:08:05.136Z,1.80
2017-10-22T10:09:05.136Z,3.70
2017-10-22T10:10:05.211Z,2.20
2017-10-22T10:11:05.227Z,1.40
2017-10-22T10:12:05.332Z,2.40
2017-10-22T10:13:05.329Z,1.60
2017-10-22T10:14:05.351Z,1.40
2017-10-22T10:15:05.232Z,1.40
2017-10-22T10:16:05.320Z,1.60
2017-10-22T10:17:05.258Z,1.00
2017-10-22T10:18:05.265Z,3.80
2017-10-22T10:19:05.282Z,1.50
2017-10-22T10:20:05.361Z,1.40
2017-10-22T10:21:05.279Z,1.20
2017-10-22T10:22:05.378Z,0.90
2017-10-22T10:23:05.277Z,1.20
2017-10-22T10:24:05.285Z,1.00
2017-10-22T10:25:05.368Z,1.70
2017-10-22T10:26:05.338Z,1.20
2017-10-22T10:27:05.243Z,0.70
2017-10-22T10:28:05.346Z,1.50
2017-10-22T10:29:05.352Z,1.90
2017-10-22T10:30:05.374Z,1.70
2017-10-22T10:31:05.200Z,2.10
2017-10-22T10:32:05.207Z,1.60
2017-10-22T10:33:05.244Z,1.10
2017-10-22T10:34:05.253Z,1.00
2017-10-22T10:35:05.267Z,1.20
2017-10-22T10:36:05.204Z,0.50
2017-10-22T10:37:05.203Z,1.90
2017-10-22T10:38:05.317Z,1.80
2017-10-22T10:39:05.293Z,1.10
2017-10-22T10:40:05.205Z,0.70
2017-10-22T10:41:05.390Z,0.70
2017-10-22T10:42:05.321Z,0.40
2017-10-22T10:43:05.389Z,1.70
2017-10-22T10:44:05.392Z,2.00
2017-10-22T10:45:05.320Z,1.20
2017-10-22T10:46:05.394Z,0.30
2017-10-22T10:47:05.332Z,1.30
2017-10-22T10:48:05.324Z,1.30
2017-10-22T10:49:05.397Z,1.30
2017-10-22T10:50:05.334Z,1.10
2017-10-22T10:51:05.395Z,1.70
2017-10-22T10:52:05.326Z,1.40
2017-10-22T10:53:05.398Z,0.90
2017-10-22T10:54:05.324Z,2.10
2017-10-22T10:55:05.431Z,0.50
2017-10-22T10:56:05.400Z,0.50
2017-10-22T10:57:05.324Z,0.90
2017-10-22T10:58:05.400Z,0.60
2017-10-22T10:59:05.327Z,1.60
2017-10-22T11:00:05.327Z,1.30
2017-10-22T11:01:05.323Z,0.80
2017-10-22T11:02:05.279Z,0.70
2017-10-22T11:03:05.389Z,1.00
2017-10-22T11:04:05.394Z,0.70
2017-10-22T11:05:05.350Z,1.30
2017-10-22T11:06:05.351Z,1.60
2017-10-22T11:07:05.345Z,1.40
2017-10-22T11:08:05.283Z,0.90
2017-10-22T11:09:05.346Z,0.60
2017-10-22T11:10:05.307Z,2.00
2017-10-22T11:11:05.410Z,0.90
2017-10-22T11:12:05.616Z,0.80
2017-10-22T11:13:05.411Z,0.90
2017-10-22T11:14:05.410Z,1.70
2017-10-22T11:15:05.339Z,1.10
2017-10-22T11:16:05.414Z,0.10
2017-10-22T11:17:05.339Z,0.80
2017-10-22T11:18:05.411Z,1.30
2017-10-22T11:19:05.338Z,2.30
2017-10-22T11:20:05.411Z,1.20
2017-10-22T11:21:05.342Z,1.30
2017-10-22T11:22:05.343Z,1.00
2017-10-22T11:23:05.417Z,0.80
2017-10-22T11:24:05.344Z,0.50
2017-10-22T11:25:05.415Z,0.80
2017-10-22T11:26:05.348Z,0.40
2017-10-22T11:27:05.417Z,0.70
2017-10-22T11:28:05.345Z,1.00
2017-10-22T11:29:05.423Z,0.80
2017-10-22T11:30:05.347Z,1.40
2017-10-22T11:31:05.350Z,1.90
2017-10-22T11:32:05.422Z,0.80
2017-10-22T11:33:05.350Z,1.40
2017-10-22T11:34:05.424Z,1.90
2017-10-22T11:35:05.348Z,0.60
2017-10-22T11:36:05.306Z,1.70
2017-10-22T11:37:05.354Z,2.10
2017-10-22T11:38:05.425Z,1.90
2017-10-22T11:39:05.356Z,1.00
2017-10-22T11:40:05.370Z,1.20
2017-10-22T11:41:05.321Z,1.80
2017-10-22T11:42:05.251Z,0.60
2017-10-22T11:43:05.371Z,1.60
2017-10-22T11:44:05.373Z,1.80
2017-10-22T11:45:05.281Z,2.30
2017-10-22T11:46:05.327Z,2.50
2017-10-22T11:47:05.276Z,2.40
2017-10-22T11:48:05.379Z,2.60
2017-10-22T11:49:05.325Z,2.30
2017-10-22T11:50:05.265Z,1.40
2017-10-22T11:51:05.404Z,1.60
2017-10-22T11:52:05.382Z,1.10
2017-10-22T11:53:05.364Z,1.10
2017-10-22T11:54:05.321Z,1.90
2017-10-22T11:55:05.337Z,0.50
2017-10-22T11:56:05.421Z,1.30
2017-10-22T11:57:05.417Z,0.40
2017-10-22T11:58:05.337Z,1.00
2017-10-22T11:59:05.366Z,2.10
2017-10-22T12:00:05.422Z,1.10
2017-10-22T12:01:05.378Z,0.80
2017-10-22T12:02:05.265Z,1.80
2017-10-22T12:03:05.369Z,1.90
2017-10-22T12:04:05.268Z,2.40
2017-10-22T12:05:05.265Z,2.40
2017-10-22T12:06:05.384Z,1.10
2017-10-22T12:07:05.386Z,1.40
2017-10-22T12:08:05.380Z,1.40
2017-10-22T12:09:05.381Z,1.20
2017-10-22T12:10:05.342Z,0.80
2017-10-22T12:11:05.395Z,1.30
2017-10-22T12:12:05.447Z,1.40
2017-10-22T12:13:05.372Z,0.80
2017-10-22T12:14:05.447Z,1.10
2017-10-22T12:15:05.372Z,1.30
2017-10-22T12:16:05.487Z,1.50
2017-10-22T12:17:05.377Z,0.40
2017-10-22T12:18:05.382Z,0.40
2017-10-22T12:19:05.450Z,1.00
2017-10-22T12:20:05.382Z,0.60
2017-10-22T12:21:05.358Z,0.50
2017-10-22T12:22:05.355Z,2.40
2017-10-22T12:23:05.359Z,0.90
2017-10-22T12:24:05.451Z,2.60
2017-10-22T12:25:05.452Z,2.90
2017-10-22T12:26:05.438Z,0.05
2017-10-22T12:27:05.404Z,1.40
2017-10-22T12:28:05.357Z,1.30
2017-10-22T12:29:05.360Z,2.40
2017-10-22T12:30:05.421Z,2.00
2017-10-22T12:31:05.357Z,1.70
2017-10-22T12:32:05.386Z,1.30
2017-10-22T12:33:05.422Z,0.90
2017-10-22T12:34:05.382Z,0.90
2017-10-22T12:35:05.460Z,0.30
2017-10-22T12:36:05.374Z,1.90
2017-10-22T12:37:05.358Z,0.90
2017-10-22T12:38:05.356Z,0.80
2017-10-22T12:39:05.391Z,1.90
2017-10-22T12:40:05.406Z,1.80
2017-10-22T12:41:05.364Z,2.10
2017-10-22T12:42:05.363Z,1.80
2017-10-22T12:43:05.439Z,1.80
2017-10-22T12:44:05.453Z,1.90
2017-10-22T12:45:05.419Z,3.30
2017-10-22T12:46:05.399Z,1.20
2017-10-22T12:47:05.395Z,1.70
2017-10-22T12:48:05.393Z,1.20
2017-10-22T12:49:05.350Z,1.00
2017-10-22T12:50:05.374Z,3.70
2017-10-22T12:51:05.487Z,1.00
2017-10-22T12:52:05.475Z,1.30
2017-10-22T12:53:05.401Z,1.10
2017-10-22T12:54:05.471Z,0.60
2017-10-22T12:55:05.408Z,1.50
2017-10-22T12:56:05.479Z,0.70
2017-10-22T12:57:05.404Z,0.60
2017-10-22T12:58:05.474Z,1.30
2017-10-22T12:59:05.405Z,0.60
2017-10-22T13:00:05.481Z,1.00
2017-10-22T13:01:05.406Z,1.00
2017-10-22T13:02:05.441Z,0.40
2017-10-22T13:03:05.441Z,1.00
2017-10-22T13:04:05.435Z,1.40
2017-10-22T13:05:05.376Z,1.40
2017-10-22T13:06:05.400Z,0.10
2017-10-22T13:07:05.381Z,0.10
2017-10-22T13:08:05.407Z,1.80
2017-10-22T13:09:05.444Z,0.50
2017-10-22T13:10:05.360Z,1.10
2017-10-22T13:11:05.446Z,0.80
2017-10-22T13:12:05.484Z,0.80
2017-10-22T13:13:05.484Z,0.40
2017-10-22T13:14:05.484Z,0.60
2017-10-22T13:15:05.415Z,1.20
2017-10-22T13:16:05.487Z,0.90
2017-10-22T13:17:05.417Z,1.70
2017-10-22T13:18:05.489Z,0.60
2017-10-22T13:19:05.411Z,1.20